Time;durP1;ratioP1;P1;durP2;ratioP2;P2;SDS_P1;SDS_P2;PMS_P1;PMS_P2;Temp;Humidity;BMP_temperature;BMP_pressure;BME280_temperature;BME280_humidity;BME280_pressure;Samples;Min_cycle;Max_cycle;Signal;HPM_P1;HPM_P2
2023/09/02 00:00:20;;;;;;;;;;;;;;;;;;5090925;28;19954;-72
2023/09/02 00:02:46;;;;;;;;;;;;;;;;;;5091252;28;19908;-72
2023/09/02 00:07:28;;;;;;;;;;;;;;;;;;5091169;27;19916;-72
2023/09/02 00:11:52;;;;;;;;;;;;;;;;;;5112374;27;19916;-72
2023/09/02 00:14:18;;;;;;;;;;;;;;;;;;5111421;28;19947;-72
2023/09/02 00:16:44;;;;;;;;;;;;;;;;;;5111638;28;19909;-71
2023/09/02 00:19:10;;;;;;;;;;;;;;;;;;5111624;28;20010;-72
2023/09/02 00:21:36;;;;;;;;;;;;;;;;;;5111263;28;19908;-72
2023/09/02 00:24:02;;;;;;;;;;;;;;;;;;5111456;28;19912;-72
2023/09/02 00:26:28;;;;;;;;;;;;;;;;;;5111424;28;19953;-72
2023/09/02 00:28:54;;;;;;;;;;;;;;;;;;5109737;28;19908;-72
2023/09/02 00:31:20;;;;;;;;;;;;;;;;;;5111205;28;20011;-72
2023/09/02 00:33:46;;;;;;;;;;;;;;;;;;5109995;28;19931;-72
2023/09/02 00:36:12;;;;;;;;;;;;;;;;;;5110784;28;19969;-72
2023/09/02 00:39:18;;;;;;;;;;;;;;;;;;5152715;27;19917;-72
2023/09/02 00:41:46;;;;;;;;;;;;;;;;;;5152439;27;19911;-72
2023/09/02 00:44:12;;;;;;;;;;;;;;;;;;5152847;27;19951;-72
2023/09/02 00:46:38;;;;;;;;;;;;;;;;;;5152864;27;19908;-72
2023/09/02 00:50:44;;;;;;;;;;;;;;;;;;5092092;27;19918;-71
2023/09/02 00:53:10;;;;;;;;;;;;;;;;;;5091272;28;20432;-71
2023/09/02 00:56:19;;;;;;;;;;;;;;;;;;5091193;27;19912;-71
2023/09/02 00:58:45;;;;;;;;;;;;;;;;;;5091219;28;19952;-71
2023/09/02 01:04:55;;;;;;;;;;;;;;;;;;5111784;27;19916;-71
2023/09/02 01:07:21;;;;;;;;;;;;;;;;;;5111668;28;20002;-72
2023/09/02 01:12:21;;;;;;;;;;;;;;;;;;5112275;27;20364;-72
2023/09/02 01:14:47;;;;;;;;;;;;;;;;;;5111669;28;20012;-71
2023/09/02 01:17:13;;;;;;;;;;;;;;;;;;5111196;28;20329;-72
2023/09/02 01:19:39;;;;;;;;;;;;;;;;;;5110318;28;20014;-72
2023/09/02 01:25:58;;;;;;;;;;;;;;;;;;5091389;28;19917;-71
2023/09/02 01:28:24;;;;;;;;;;;;;;;;;;5091444;28;20428;-71
2023/09/02 01:30:49;;;;;;;;;;;;;;;;;;5090921;28;19909;-72
2023/09/02 01:33:15;;;;;;;;;;;;;;;;;;5091237;28;19916;-72
2023/09/02 01:35:41;;;;;;;;;;;;;;;;;;5091495;28;19908;-73
2023/09/02 01:38:07;;;;;;;;;;;;;;;;;;5089584;28;19912;-72
2023/09/02 01:40:33;;;;;;;;;;;;;;;;;;5091264;28;19999;-71
2023/09/02 01:47:01;;;;;;;;;;;;;;;;;;5132204;27;19995;-72
2023/09/02 01:49:27;;;;;;;;;;;;;;;;;;5132266;28;19966;-72
2023/09/02 01:53:54;;;;;;;;;;;;;;;;;;5112271;27;19916;-72
2023/09/02 01:56:19;;;;;;;;;;;;;;;;;;5111782;28;20340;-71
2023/09/02 01:58:45;;;;;;;;;;;;;;;;;;5111214;28;19912;-71
2023/09/02 02:07:49;;;;;;;;;;;;;;;;;;5091415;27;19912;-71
2023/09/02 02:10:14;;;;;;;;;;;;;;;;;;5091312;28;19913;-72
2023/09/02 02:14:59;;;;;;;;;;;;;;;;;;5091597;28;19917;-71
2023/09/02 02:18:10;;;;;;;;;;;;;;;;;;5112334;27;19938;-72
2023/09/02 02:20:36;;;;;;;;;;;;;;;;;;5110007;28;20448;-71
2023/09/02 02:27:07;;;;;;;;;;;;;;;;;;5111727;27;19923;-72
2023/09/02 02:29:34;;;;;;;;;;;;;;;;;;5111743;28;20003;-71
2023/09/02 02:32:00;;;;;;;;;;;;;;;;;;5111691;28;19908;-72
2023/09/02 02:36:20;;;;;;;;;;;;;;;;;;5112345;27;20390;-71
2023/09/02 02:38:46;;;;;;;;;;;;;;;;;;5111677;28;19912;-72
2023/09/02 02:42:14;;;;;;;;;;;;;;;;;;5091041;27;19916;-71
2023/09/02 02:46:51;;;;;;;;;;;;;;;;;;5111775;27;19919;-71
2023/09/02 02:49:16;;;;;;;;;;;;;;;;;;5111330;28;19912;-72
2023/09/02 02:51:42;;;;;;;;;;;;;;;;;;5111478;28;19915;-71
2023/09/02 02:55:13;;;;;;;;;;;;;;;;;;5111644;27;19912;-72
2023/09/02 02:57:39;;;;;;;;;;;;;;;;;;5111799;28;19912;-71
2023/09/02 03:01:46;;;;;;;;;;;;;;;;;;5111436;27;19938;-71
2023/09/02 03:04:13;;;;;;;;;;;;;;;;;;5111613;28;19998;-72
2023/09/02 03:08:08;;;;;;;;;;;;;;;;;;5111677;27;19916;-71
2023/09/02 03:10:35;;;;;;;;;;;;;;;;;;5111154;28;19918;-71
2023/09/02 03:13:01;;;;;;;;;;;;;;;;;;5111485;28;19961;-72
2023/09/02 03:17:55;;;;;;;;;;;;;;;;;;5111229;27;20384;-71
2023/09/02 03:20:21;;;;;;;;;;;;;;;;;;5110417;28;20006;-72
2023/09/02 03:22:46;;;;;;;;;;;;;;;;;;5111183;28;19908;-71
2023/09/02 03:27:28;;;;;;;;;;;;;;;;;;5091797;28;19916;-72
2023/09/02 03:29:55;;;;;;;;;;;;;;;;;;5091418;28;20439;-71
2023/09/02 03:37:51;;;;;;;;;;;;;;;;;;5091208;27;20390;-71
2023/09/02 03:40:17;;;;;;;;;;;;;;;;;;5089953;28;20019;-71
2023/09/02 03:44:51;;;;;;;;;;;;;;;;;;5091348;27;19919;-71
2023/09/02 03:47:17;;;;;;;;;;;;;;;;;;5091267;28;20368;-71
2023/09/02 03:53:34;;;;;;;;;;;;;;;;;;5111999;27;19916;-71
2023/09/02 03:56:00;;;;;;;;;;;;;;;;;;5111540;28;20439;-71
2023/09/02 03:59:59;;;;;;;;;;;;;;;;;;5070897;28;19917;-71
2023/09/02 04:02:25;;;;;;;;;;;;;;;;;;5071164;28;20384;-71
2023/09/02 04:05:30;;;;;;;;;;;;;;;;;;5091047;27;19916;-71
2023/09/02 04:09:29;;;;;;;;;;;;;;;;;;5092082;27;20386;-72
2023/09/02 04:13:49;;;;;;;;;;;;;;;;;;5111524;27;20375;-73
2023/09/02 04:16:15;;;;;;;;;;;;;;;;;;5111791;28;20006;-72
2023/09/02 04:18:41;;;;;;;;;;;;;;;;;;5111581;28;19912;-72
2023/09/02 04:21:10;;;;;;;;;;;;;;;;;;5111480;28;19943;-72
2023/09/02 04:25:59;;;;;;;;;;;;;;;;;;5091500;27;19917;-71
2023/09/02 04:28:25;;;;;;;;;;;;;;;;;;5090864;28;19999;-71
2023/09/02 04:30:51;;;;;;;;;;;;;;;;;;5091197;28;19908;-71
2023/09/02 04:33:56;;;;;;;;;;;;;;;;;;5091329;27;19916;-71
2023/09/02 04:36:22;;;;;;;;;;;;;;;;;;5091562;28;19912;-71
2023/09/02 04:38:48;;;;;;;;;;;;;;;;;;5091276;28;19943;-71
2023/09/02 04:41:45;;;;;;;;;;;;;;;;;;5070889;28;19919;-71
2023/09/02 04:44:11;;;;;;;;;;;;;;;;;;5071015;28;19999;-71
2023/09/02 04:46:50;;;;;;;;;;;;;;;;;;5091604;27;20402;-71
2023/09/02 04:49:16;;;;;;;;;;;;;;;;;;5090932;28;20006;-71
2023/09/02 04:51:42;;;;;;;;;;;;;;;;;;5091193;28;20357;-71
2023/09/02 04:54:08;;;;;;;;;;;;;;;;;;5091093;28;19967;-71
2023/09/02 04:56:34;;;;;;;;;;;;;;;;;;5091061;28;19909;-70
2023/09/02 04:59:00;;;;;;;;;;;;;;;;;;5091034;28;19912;-71
2023/09/02 05:03:08;;;;;;;;;;;;;;;;;;5090983;28;20029;-71
2023/09/02 05:07:14;;;;;;;;;;;;;;;;;;5091650;27;20372;-72
2023/09/02 05:09:40;;;;;;;;;;;;;;;;;;5091038;28;19995;-71
2023/09/02 05:12:27;;;;;;;;;;;;;;;;;;5112153;27;19916;-71
2023/09/02 05:14:53;;;;;;;;;;;;;;;;;;5112001;28;20002;-71
2023/09/02 05:20:36;;;;;;;;;;;;;;;;;;5111909;27;19916;-71
2023/09/02 05:23:02;;;;;;;;;;;;;;;;;;5110572;28;20007;-71
2023/09/02 05:25:28;;;;;;;;;;;;;;;;;;5112981;28;19908;-72
2023/09/02 05:27:54;;;;;;;;;;;;;;;;;;5112237;28;19944;-72
2023/09/02 05:30:20;;;;;;;;;;;;;;;;;;5112766;28;19914;-72
2023/09/02 05:32:46;;;;;;;;;;;;;;;;;;5120524;28;19952;-73
2023/09/02 05:35:12;;;;;;;;;;;;;;;;;;5121973;28;19915;-71
2023/09/02 05:37:38;;;;;;;;;;;;;;;;;;5119857;28;20283;-72
2023/09/02 05:40:04;;;;;;;;;;;;;;;;;;5111313;28;19938;-72
2023/09/02 05:42:30;;;;;;;;;;;;;;;;;;5111320;28;19908;-72
2023/09/02 05:46:03;;;;;;;;;;;;;;;;;;5112254;27;20298;-71
2023/09/02 05:48:29;;;;;;;;;;;;;;;;;;5112207;28;19912;-71
2023/09/02 05:50:55;;;;;;;;;;;;;;;;;;5111826;28;20272;-71
2023/09/02 05:53:21;;;;;;;;;;;;;;;;;;5111536;28;19908;-71
2023/09/02 05:55:47;;;;;;;;;;;;;;;;;;5111604;28;19912;-71
2023/09/02 05:58:13;;;;;;;;;;;;;;;;;;5111118;28;19918;-71
2023/09/02 06:01:04;;;;;;;;;;;;;;;;;;5112259;27;19916;-72
2023/09/02 06:03:30;;;;;;;;;;;;;;;;;;5111900;28;20344;-72
2023/09/02 06:07:04;;;;;;;;;;;;;;;;;;5071665;28;19916;-71
2023/09/02 06:09:31;;;;;;;;;;;;;;;;;;5071483;28;20007;-72
2023/09/02 06:11:57;;;;;;;;;;;;;;;;;;5070696;28;19970;-71
2023/09/02 06:16:11;;;;;;;;;;;;;;;;;;5091888;27;20406;-72
2023/09/02 06:18:37;;;;;;;;;;;;;;;;;;5090869;28;20000;-74
2023/09/02 06:22:57;;;;;;;;;;;;;;;;;;5112117;27;20291;-71
2023/09/02 06:25:23;;;;;;;;;;;;;;;;;;5112339;28;19998;-70
2023/09/02 06:27:49;;;;;;;;;;;;;;;;;;5111211;28;20360;-71
2023/09/02 06:30:15;;;;;;;;;;;;;;;;;;5111653;28;20391;-72
2023/09/02 06:32:41;;;;;;;;;;;;;;;;;;5111133;28;19908;-72
2023/09/02 06:35:11;;;;;;;;;;;;;;;;;;5111479;28;19965;-72
2023/09/02 06:37:37;;;;;;;;;;;;;;;;;;5111668;28;19952;-72
2023/09/02 06:40:03;;;;;;;;;;;;;;;;;;5109774;28;20283;-72
2023/09/02 06:42:29;;;;;;;;;;;;;;;;;;5111268;28;20279;-72
2023/09/02 06:44:55;;;;;;;;;;;;;;;;;;5111308;28;19915;-72
2023/09/02 06:50:36;;;;;;;;;;;;;;;;;;5111769;27;19916;-71
2023/09/02 06:53:01;;;;;;;;;;;;;;;;;;5111541;28;20288;-72
2023/09/02 06:55:27;;;;;;;;;;;;;;;;;;5109790;28;19957;-71
2023/09/02 06:57:53;;;;;;;;;;;;;;;;;;5111499;28;19908;-71
2023/09/02 07:00:19;;;;;;;;;;;;;;;;;;5111498;28;20002;-72
2023/09/02 07:02:45;;;;;;;;;;;;;;;;;;5110996;28;19912;-72
2023/09/02 07:05:11;;;;;;;;;;;;;;;;;;5111311;28;19962;-72
2023/09/02 07:07:37;;;;;;;;;;;;;;;;;;5111394;28;19908;-71
2023/09/02 07:10:03;;;;;;;;;;;;;;;;;;5110861;28;19916;-71
2023/09/02 07:13:21;;;;;;;;;;;;;;;;;;5091437;28;19992;-71
2023/09/02 07:15:46;;;;;;;;;;;;;;;;;;5090892;28;20455;-71
2023/09/02 07:18:12;;;;;;;;;;;;;;;;;;5091149;28;19912;-71
2023/09/02 07:20:38;;;;;;;;;;;;;;;;;;5091060;28;19923;-71
2023/09/02 07:23:04;;;;;;;;;;;;;;;;;;5090609;28;19908;-71
2023/09/02 07:25:30;;;;;;;;;;;;;;;;;;5091022;28;19966;-71
2023/09/02 07:27:56;;;;;;;;;;;;;;;;;;5091212;28;19908;-71
2023/09/02 07:30:22;;;;;;;;;;;;;;;;;;5090432;28;19916;-71
2023/09/02 07:32:48;;;;;;;;;;;;;;;;;;5090809;28;19916;-71
2023/09/02 07:37:04;;;;;;;;;;;;;;;;;;5091092;27;20372;-71
2023/09/02 07:39:30;;;;;;;;;;;;;;;;;;5089946;28;20330;-71
2023/09/02 07:41:56;;;;;;;;;;;;;;;;;;5091135;28;19909;-71
2023/09/02 07:44:22;;;;;;;;;;;;;;;;;;5090765;28;19912;-71
2023/09/02 07:46:48;;;;;;;;;;;;;;;;;;5091026;28;19915;-71
2023/09/02 07:49:14;;;;;;;;;;;;;;;;;;5091026;28;19912;-71
2023/09/02 07:51:40;;;;;;;;;;;;;;;;;;5090674;28;20365;-71
2023/09/02 07:54:06;;;;;;;;;;;;;;;;;;5091130;28;19908;-71
2023/09/02 07:56:31;;;;;;;;;;;;;;;;;;5090936;28;20399;-71
2023/09/02 07:58:57;;;;;;;;;;;;;;;;;;5090721;28;20269;-71
2023/09/02 08:01:25;;;;;;;;;;;;;;;;;;5090776;28;20400;-72
2023/09/02 08:03:51;;;;;;;;;;;;;;;;;;5090807;28;19915;-72
2023/09/02 08:08:10;;;;;;;;;;;;;;;;;;5091690;27;19917;-71
2023/09/02 08:10:36;;;;;;;;;;;;;;;;;;5091736;28;19967;-71
2023/09/02 08:13:02;;;;;;;;;;;;;;;;;;5090813;28;20331;-71
2023/09/02 08:15:27;;;;;;;;;;;;;;;;;;5091149;28;19908;-71
2023/09/02 08:17:53;;;;;;;;;;;;;;;;;;5091082;28;20394;-72
2023/09/02 08:20:19;;;;;;;;;;;;;;;;;;5090628;28;19963;-71
2023/09/02 08:22:45;;;;;;;;;;;;;;;;;;5089720;28;19908;-70
2023/09/02 08:25:11;;;;;;;;;;;;;;;;;;5090495;28;19936;-71
2023/09/02 08:27:37;;;;;;;;;;;;;;;;;;5089580;28;19920;-71
2023/09/02 08:30:03;;;;;;;;;;;;;;;;;;5090839;28;20280;-71
2023/09/02 08:34:59;;;;;;;;;;;;;;;;;;5092015;27;19923;-71
2023/09/02 08:39:34;;;;;;;;;;;;;;;;;;5091530;27;19931;-71
2023/09/02 08:42:00;;;;;;;;;;;;;;;;;;5091166;28;19966;-71
2023/09/02 08:44:27;;;;;;;;;;;;;;;;;;5091256;28;20380;-71
2023/09/02 08:46:53;;;;;;;;;;;;;;;;;;5090805;28;19908;-71
2023/09/02 08:49:18;;;;;;;;;;;;;;;;;;5091075;28;19908;-71
2023/09/02 08:51:44;;;;;;;;;;;;;;;;;;5091015;28;19912;-71
2023/09/02 08:54:12;;;;;;;;;;;;;;;;;;5090594;28;19908;-71
2023/09/02 08:56:41;;;;;;;;;;;;;;;;;;5090977;28;19909;-71
2023/09/02 08:59:07;;;;;;;;;;;;;;;;;;5090793;28;19999;-71
2023/09/02 09:01:33;;;;;;;;;;;;;;;;;;5090456;28;20379;-71
2023/09/02 09:03:59;;;;;;;;;;;;;;;;;;5091119;28;19908;-71
2023/09/02 09:06:25;;;;;;;;;;;;;;;;;;5090803;28;19908;-71
2023/09/02 09:08:51;;;;;;;;;;;;;;;;;;5090438;28;20399;-71
2023/09/02 09:11:17;;;;;;;;;;;;;;;;;;5090693;28;20021;-71
2023/09/02 09:13:44;;;;;;;;;;;;;;;;;;5090640;28;19915;-71
2023/09/02 09:16:10;;;;;;;;;;;;;;;;;;5090240;28;20368;-71
2023/09/02 09:18:36;;;;;;;;;;;;;;;;;;5090752;28;19923;-71
2023/09/02 09:21:02;;;;;;;;;;;;;;;;;;5090557;28;19908;-71
2023/09/02 09:23:28;;;;;;;;;;;;;;;;;;5090124;28;19958;-72
2023/09/02 09:25:54;;;;;;;;;;;;;;;;;;5090856;28;19912;-71
2023/09/02 09:28:20;;;;;;;;;;;;;;;;;;5090883;28;19908;-72
2023/09/02 09:30:46;;;;;;;;;;;;;;;;;;5090008;28;19915;-72
2023/09/02 09:33:12;;;;;;;;;;;;;;;;;;5090318;28;19908;-72
2023/09/02 09:35:38;;;;;;;;;;;;;;;;;;5088900;28;19908;-72
2023/09/02 09:38:05;;;;;;;;;;;;;;;;;;5098463;28;19964;-71
2023/09/02 09:40:31;;;;;;;;;;;;;;;;;;5110999;28;20280;-72
2023/09/02 09:42:57;;;;;;;;;;;;;;;;;;5110507;28;19908;-72
2023/09/02 09:45:23;;;;;;;;;;;;;;;;;;5110357;28;19908;-72
2023/09/02 09:47:49;;;;;;;;;;;;;;;;;;5110277;28;19995;-72
2023/09/02 09:50:15;;;;;;;;;;;;;;;;;;5099875;28;19953;-72
2023/09/02 09:52:41;;;;;;;;;;;;;;;;;;5096906;28;19914;-72
2023/09/02 09:55:07;;;;;;;;;;;;;;;;;;5096707;28;19930;-71
2023/09/02 09:57:33;;;;;;;;;;;;;;;;;;5096179;28;20021;-72
2023/09/02 09:59:59;;;;;;;;;;;;;;;;;;5096518;28;19917;-71
2023/09/02 10:02:25;;;;;;;;;;;;;;;;;;5096531;28;20392;-71
2023/09/02 10:04:51;;;;;;;;;;;;;;;;;;5077819;28;20364;-72
2023/09/02 10:07:19;;;;;;;;;;;;;;;;;;5096379;28;19908;-72
2023/09/02 10:09:45;;;;;;;;;;;;;;;;;;5096409;28;19908;-71
2023/09/02 10:12:15;;;;;;;;;;;;;;;;;;5096010;28;19908;-72
2023/09/02 10:14:41;;;;;;;;;;;;;;;;;;5078301;28;19908;-73
2023/09/02 10:17:07;;;;;;;;;;;;;;;;;;5096236;28;20069;-71
2023/09/02 10:19:33;;;;;;;;;;;;;;;;;;5095966;28;19912;-72
2023/09/02 10:21:59;;;;;;;;;;;;;;;;;;5096246;28;20371;-72
2023/09/02 10:24:25;;;;;;;;;;;;;;;;;;5096732;28;19915;-72
2023/09/02 10:26:51;;;;;;;;;;;;;;;;;;5095667;28;19914;-72
2023/09/02 10:29:17;;;;;;;;;;;;;;;;;;5095988;28;19908;-73
2023/09/02 10:31:45;;;;;;;;;;;;;;;;;;5095942;28;19930;-72
2023/09/02 10:34:11;;;;;;;;;;;;;;;;;;5096046;28;20445;-72
2023/09/02 10:36:37;;;;;;;;;;;;;;;;;;5095939;28;20021;-73
2023/09/02 10:39:03;;;;;;;;;;;;;;;;;;5077148;28;19937;-72
2023/09/02 10:41:29;;;;;;;;;;;;;;;;;;5078299;28;19915;-72
2023/09/02 10:43:54;;;;;;;;;;;;;;;;;;5095984;28;20006;-72
2023/09/02 10:46:20;;;;;;;;;;;;;;;;;;5096218;28;19908;-72
2023/09/02 10:48:48;;;;;;;;;;;;;;;;;;5096558;28;19915;-72
2023/09/02 10:51:14;;;;;;;;;;;;;;;;;;5096744;28;19915;-72
2023/09/02 10:53:40;;;;;;;;;;;;;;;;;;5095345;28;19908;-72
2023/09/02 10:56:06;;;;;;;;;;;;;;;;;;5095445;28;19941;-72
2023/09/02 10:58:31;;;;;;;;;;;;;;;;;;5095508;28;19916;-72
2023/09/02 11:00:57;;;;;;;;;;;;;;;;;;5094146;28;19908;-72
2023/09/02 11:03:23;;;;;;;;;;;;;;;;;;5095244;28;19908;-72
2023/09/02 11:05:49;;;;;;;;;;;;;;;;;;5095217;28;19915;-72
2023/09/02 11:08:15;;;;;;;;;;;;;;;;;;5094853;28;20011;-72
2023/09/02 11:10:41;;;;;;;;;;;;;;;;;;5095166;28;19908;-72
2023/09/02 11:13:07;;;;;;;;;;;;;;;;;;5095149;28;19912;-72
2023/09/02 11:15:33;;;;;;;;;;;;;;;;;;5094749;28;19909;-72
2023/09/02 11:17:59;;;;;;;;;;;;;;;;;;5076740;28;19920;-72
2023/09/02 11:20:25;;;;;;;;;;;;;;;;;;5095115;28;19953;-72
2023/09/02 11:22:51;;;;;;;;;;;;;;;;;;5094600;28;19908;-72
2023/09/02 11:25:17;;;;;;;;;;;;;;;;;;5095238;28;20415;-72
2023/09/02 11:27:43;;;;;;;;;;;;;;;;;;5094794;28;20042;-72
2023/09/02 11:30:09;;;;;;;;;;;;;;;;;;5094348;28;19960;-72
2023/09/02 11:32:35;;;;;;;;;;;;;;;;;;5094711;28;20002;-72
2023/09/02 11:35:01;;;;;;;;;;;;;;;;;;5094893;28;19915;-72
2023/09/02 11:37:27;;;;;;;;;;;;;;;;;;5094143;28;20003;-72
2023/09/02 11:39:53;;;;;;;;;;;;;;;;;;5094718;28;19908;-72
2023/09/02 11:42:19;;;;;;;;;;;;;;;;;;5094153;28;19908;-73
2023/09/02 11:44:45;;;;;;;;;;;;;;;;;;5094506;28;19915;-72
2023/09/02 11:47:11;;;;;;;;;;;;;;;;;;5094696;28;19959;-72
2023/09/02 11:49:37;;;;;;;;;;;;;;;;;;5094017;28;19912;-72
2023/09/02 11:52:03;;;;;;;;;;;;;;;;;;5094419;28;19908;-72
2023/09/02 11:54:29;;;;;;;;;;;;;;;;;;5094364;28;19998;-72
2023/09/02 11:56:55;;;;;;;;;;;;;;;;;;5093974;28;19908;-71
2023/09/02 11:59:21;;;;;;;;;;;;;;;;;;5075885;28;19928;-71
2023/09/02 12:01:47;;;;;;;;;;;;;;;;;;5094211;28;19954;-71
2023/09/02 12:04:13;;;;;;;;;;;;;;;;;;5093796;28;20007;-71
2023/09/02 12:06:39;;;;;;;;;;;;;;;;;;5094144;28;19908;-72
2023/09/02 12:09:05;;;;;;;;;;;;;;;;;;5094107;28;19909;-71
2023/09/02 12:11:31;;;;;;;;;;;;;;;;;;5093607;28;19996;-72
2023/09/02 12:13:57;;;;;;;;;;;;;;;;;;5093719;28;19912;-71
2023/09/02 12:16:23;;;;;;;;;;;;;;;;;;5094545;28;19908;-72
2023/09/02 12:18:49;;;;;;;;;;;;;;;;;;5093521;28;19950;-72
2023/09/02 12:21:15;;;;;;;;;;;;;;;;;;5094081;28;19912;-72
2023/09/02 12:23:41;;;;;;;;;;;;;;;;;;5093936;28;19915;-72
2023/09/02 12:26:07;;;;;;;;;;;;;;;;;;5093615;28;19947;-72
2023/09/02 12:28:33;;;;;;;;;;;;;;;;;;5093903;28;19909;-72
2023/09/02 12:30:59;;;;;;;;;;;;;;;;;;5093838;28;19908;-72
2023/09/02 12:33:26;;;;;;;;;;;;;;;;;;5075331;28;19908;-72
2023/09/02 12:35:52;;;;;;;;;;;;;;;;;;5093967;28;19908;-72
2023/09/02 12:38:21;;;;;;;;;;;;;;;;;;5075366;28;19920;-72
2023/09/02 12:40:47;;;;;;;;;;;;;;;;;;5075726;28;19908;-72
2023/09/02 12:43:13;;;;;;;;;;;;;;;;;;5093720;28;19908;-72
2023/09/02 12:45:44;;;;;;;;;;;;;;;;;;5093270;28;19908;-72
2023/09/02 12:48:10;;;;;;;;;;;;;;;;;;5093635;28;19912;-72
2023/09/02 12:50:36;;;;;;;;;;;;;;;;;;5093950;28;20287;-72
2023/09/02 12:53:02;;;;;;;;;;;;;;;;;;5093229;28;20364;-72
2023/09/02 12:55:28;;;;;;;;;;;;;;;;;;5094207;28;19916;-72
2023/09/02 12:57:54;;;;;;;;;;;;;;;;;;5075362;28;20326;-72
2023/09/02 13:00:20;;;;;;;;;;;;;;;;;;5093269;28;19930;-72
2023/09/02 13:02:46;;;;;;;;;;;;;;;;;;5093624;28;20379;-72
2023/09/02 13:05:12;;;;;;;;;;;;;;;;;;5075394;28;19908;-72
2023/09/02 13:07:38;;;;;;;;;;;;;;;;;;5093536;28;19955;-72
2023/09/02 13:10:04;;;;;;;;;;;;;;;;;;5093541;28;19919;-71
2023/09/02 13:12:30;;;;;;;;;;;;;;;;;;5093424;28;19909;-72
2023/09/02 13:14:56;;;;;;;;;;;;;;;;;;5074990;28;19912;-72
2023/09/02 13:17:23;;;;;;;;;;;;;;;;;;5093311;28;19959;-72
2023/09/02 13:19:49;;;;;;;;;;;;;;;;;;5093776;28;19912;-72
2023/09/02 13:22:15;;;;;;;;;;;;;;;;;;5093081;28;19985;-72
2023/09/02 13:24:41;;;;;;;;;;;;;;;;;;5094437;28;19970;-71
2023/09/02 13:27:07;;;;;;;;;;;;;;;;;;5097408;28;20057;-72
2023/09/02 13:29:33;;;;;;;;;;;;;;;;;;5078618;28;19908;-72
2023/09/02 13:31:59;;;;;;;;;;;;;;;;;;5097093;28;19908;-72
2023/09/02 13:34:24;;;;;;;;;;;;;;;;;;5097047;28;20022;-72
2023/09/02 13:36:50;;;;;;;;;;;;;;;;;;5096631;28;19958;-72
2023/09/02 13:39:16;;;;;;;;;;;;;;;;;;5096786;28;19924;-72
2023/09/02 13:41:42;;;;;;;;;;;;;;;;;;5078310;28;19915;-73
2023/09/02 13:44:08;;;;;;;;;;;;;;;;;;5097341;28;20003;-73
2023/09/02 13:46:34;;;;;;;;;;;;;;;;;;5096845;28;20364;-73
2023/09/02 13:49:00;;;;;;;;;;;;;;;;;;5096387;28;19908;-72
2023/09/02 13:51:26;;;;;;;;;;;;;;;;;;5096864;28;19908;-72
2023/09/02 13:53:54;;;;;;;;;;;;;;;;;;5096712;28;19908;-72
2023/09/02 13:56:20;;;;;;;;;;;;;;;;;;5096334;28;20388;-73
2023/09/02 13:58:50;;;;;;;;;;;;;;;;;;5096871;28;19974;-73
2023/09/02 14:01:16;;;;;;;;;;;;;;;;;;5096509;28;19908;-72
2023/09/02 14:03:42;;;;;;;;;;;;;;;;;;5096130;28;20382;-73
2023/09/02 14:06:08;;;;;;;;;;;;;;;;;;5096554;28;20352;-72
2023/09/02 14:08:34;;;;;;;;;;;;;;;;;;5096394;28;19912;-73
2023/09/02 14:11:00;;;;;;;;;;;;;;;;;;5095935;28;19915;-73
2023/09/02 14:13:26;;;;;;;;;;;;;;;;;;5096368;28;19908;-73
2023/09/02 14:15:52;;;;;;;;;;;;;;;;;;5096299;28;19963;-70
2023/09/02 14:18:18;;;;;;;;;;;;;;;;;;5095657;28;19961;-71
2023/09/02 14:20:44;;;;;;;;;;;;;;;;;;5096116;28;19912;-71
2023/09/02 14:23:10;;;;;;;;;;;;;;;;;;5096141;28;20006;-70
2023/09/02 14:25:36;;;;;;;;;;;;;;;;;;5095528;28;19908;-71
2023/09/02 14:28:02;;;;;;;;;;;;;;;;;;5077838;28;19957;-71
2023/09/02 14:30:28;;;;;;;;;;;;;;;;;;5096040;28;19921;-71
2023/09/02 14:32:54;;;;;;;;;;;;;;;;;;5077362;28;20379;-71
2023/09/02 14:35:19;;;;;;;;;;;;;;;;;;5095757;28;19908;-72
2023/09/02 14:37:45;;;;;;;;;;;;;;;;;;5095735;28;19920;-72
2023/09/02 14:40:11;;;;;;;;;;;;;;;;;;5095369;28;20003;-72
2023/09/02 14:42:37;;;;;;;;;;;;;;;;;;5077560;28;19915;-72
2023/09/02 14:45:04;;;;;;;;;;;;;;;;;;5095421;28;19916;-72
2023/09/02 14:47:30;;;;;;;;;;;;;;;;;;5095625;28;19908;-72
2023/09/02 14:49:57;;;;;;;;;;;;;;;;;;5077720;28;20265;-72
2023/09/02 14:52:23;;;;;;;;;;;;;;;;;;5095181;28;19940;-72
2023/09/02 14:54:49;;;;;;;;;;;;;;;;;;5095533;28;19943;-71
2023/09/02 14:57:15;;;;;;;;;;;;;;;;;;5095560;28;20036;-72
2023/09/02 14:59:40;;;;;;;;;;;;;;;;;;5094971;28;20415;-71
2023/09/02 15:02:06;;;;;;;;;;;;;;;;;;5095839;28;20306;-71
2023/09/02 15:04:32;;;;;;;;;;;;;;;;;;5095312;28;20325;-72
2023/09/02 15:06:58;;;;;;;;;;;;;;;;;;5094859;28;20023;-72
2023/09/02 15:09:24;;;;;;;;;;;;;;;;;;5095078;28;19912;-72
2023/09/02 15:11:50;;;;;;;;;;;;;;;;;;5095111;28;20279;-72
2023/09/02 15:14:16;;;;;;;;;;;;;;;;;;5095091;28;20340;-71
2023/09/02 15:16:42;;;;;;;;;;;;;;;;;;5095066;28;20316;-72
2023/09/02 15:19:08;;;;;;;;;;;;;;;;;;5095042;28;20271;-71
2023/09/02 15:21:34;;;;;;;;;;;;;;;;;;5094681;28;19935;-71
2023/09/02 15:24:00;;;;;;;;;;;;;;;;;;5076744;28;19908;-71
2023/09/02 15:26:26;;;;;;;;;;;;;;;;;;5094675;28;20370;-72
2023/09/02 15:28:52;;;;;;;;;;;;;;;;;;5094419;28;19997;-71
2023/09/02 15:31:18;;;;;;;;;;;;;;;;;;5094766;28;19916;-71
2023/09/02 15:33:44;;;;;;;;;;;;;;;;;;5094789;28;19912;-72
2023/09/02 15:36:10;;;;;;;;;;;;;;;;;;5094352;28;20379;-71
2023/09/02 15:38:36;;;;;;;;;;;;;;;;;;5094266;28;19920;-72
2023/09/02 15:41:01;;;;;;;;;;;;;;;;;;5076577;28;19931;-72
2023/09/02 15:43:27;;;;;;;;;;;;;;;;;;5075942;28;19908;-72
2023/09/02 15:45:53;;;;;;;;;;;;;;;;;;5094438;28;19943;-73
2023/09/02 15:48:19;;;;;;;;;;;;;;;;;;5093478;28;19915;-73
2023/09/02 15:50:45;;;;;;;;;;;;;;;;;;5094692;28;19975;-73
2023/09/02 15:53:11;;;;;;;;;;;;;;;;;;5094857;28;19908;-72
2023/09/02 15:55:37;;;;;;;;;;;;;;;;;;5093828;28;20358;-72
2023/09/02 15:58:03;;;;;;;;;;;;;;;;;;5094230;28;20325;-72
2023/09/02 16:00:29;;;;;;;;;;;;;;;;;;5094218;28;19931;-71
2023/09/02 16:02:55;;;;;;;;;;;;;;;;;;5093931;28;20045;-72
2023/09/02 16:05:21;;;;;;;;;;;;;;;;;;5094663;28;19912;-72
2023/09/02 16:07:49;;;;;;;;;;;;;;;;;;5094096;28;19908;-72
2023/09/02 16:10:15;;;;;;;;;;;;;;;;;;5093661;28;20403;-72
2023/09/02 16:12:41;;;;;;;;;;;;;;;;;;5094016;28;19908;-72
2023/09/02 16:15:10;;;;;;;;;;;;;;;;;;5094004;28;20427;-73
2023/09/02 16:17:39;;;;;;;;;;;;;;;;;;5093837;28;19923;-72
2023/09/02 16:20:04;;;;;;;;;;;;;;;;;;5075781;28;19912;-72
2023/09/02 16:22:31;;;;;;;;;;;;;;;;;;5093901;28;19954;-72
2023/09/02 16:24:57;;;;;;;;;;;;;;;;;;5093484;28;19939;-72
2023/09/02 16:27:23;;;;;;;;;;;;;;;;;;5093921;28;19954;-73
2023/09/02 16:29:49;;;;;;;;;;;;;;;;;;5093934;28;19947;-73
2023/09/02 16:32:15;;;;;;;;;;;;;;;;;;5093538;28;20467;-73
2023/09/02 16:34:41;;;;;;;;;;;;;;;;;;5093843;28;19947;-72
2023/09/02 16:37:07;;;;;;;;;;;;;;;;;;5075299;28;19951;-71
2023/09/02 16:39:33;;;;;;;;;;;;;;;;;;5093246;28;19916;-72
2023/09/02 16:41:59;;;;;;;;;;;;;;;;;;5075633;28;19915;-73
2023/09/02 16:44:25;;;;;;;;;;;;;;;;;;5093977;28;19962;-71
2023/09/02 16:46:51;;;;;;;;;;;;;;;;;;5093394;28;19912;-72
2023/09/02 16:49:17;;;;;;;;;;;;;;;;;;5093701;28;19908;-71
2023/09/02 16:51:43;;;;;;;;;;;;;;;;;;5093499;28;19973;-73
2023/09/02 16:54:09;;;;;;;;;;;;;;;;;;5093642;28;20336;-71
2023/09/02 16:56:35;;;;;;;;;;;;;;;;;;5093609;28;20375;-71
2023/09/02 16:59:01;;;;;;;;;;;;;;;;;;5093097;28;19916;-71
2023/09/02 17:01:26;;;;;;;;;;;;;;;;;;5097599;28;19915;-73
2023/09/02 17:03:52;;;;;;;;;;;;;;;;;;5097662;28;19998;-72
2023/09/02 17:06:18;;;;;;;;;;;;;;;;;;5097138;28;19908;-71
2023/09/02 17:08:44;;;;;;;;;;;;;;;;;;5097507;28;19992;-71
2023/09/02 17:11:10;;;;;;;;;;;;;;;;;;5097550;28;19912;-71
2023/09/02 17:13:36;;;;;;;;;;;;;;;;;;5097019;28;19915;-71
2023/09/02 17:16:02;;;;;;;;;;;;;;;;;;5097430;28;19908;-72
2023/09/02 17:18:28;;;;;;;;;;;;;;;;;;5097541;28;19920;-71
2023/09/02 17:20:54;;;;;;;;;;;;;;;;;;5097141;28;19912;-71
2023/09/02 17:23:20;;;;;;;;;;;;;;;;;;5097463;28;19909;-71
2023/09/02 17:25:48;;;;;;;;;;;;;;;;;;5097375;28;19995;-71
2023/09/02 17:28:14;;;;;;;;;;;;;;;;;;5096772;28;20353;-71
2023/09/02 17:30:40;;;;;;;;;;;;;;;;;;5097084;28;19908;-71
2023/09/02 17:33:06;;;;;;;;;;;;;;;;;;5097321;28;19908;-71
2023/09/02 17:35:32;;;;;;;;;;;;;;;;;;5078454;28;20000;-72
2023/09/02 17:37:59;;;;;;;;;;;;;;;;;;5096803;28;19927;-71
2023/09/02 17:40:30;;;;;;;;;;;;;;;;;;5097001;28;19948;-71
2023/09/02 17:42:56;;;;;;;;;;;;;;;;;;5096600;28;19908;-72
2023/09/02 17:45:22;;;;;;;;;;;;;;;;;;5096846;28;19915;-71
2023/09/02 17:47:48;;;;;;;;;;;;;;;;;;5078600;28;19908;-71
2023/09/02 17:50:14;;;;;;;;;;;;;;;;;;5096654;28;19912;-71
2023/09/02 17:52:40;;;;;;;;;;;;;;;;;;5096796;28;20275;-72
2023/09/02 17:55:06;;;;;;;;;;;;;;;;;;5096195;28;20322;-73
2023/09/02 17:57:32;;;;;;;;;;;;;;;;;;5096596;28;19908;-73
2023/09/02 17:59:58;;;;;;;;;;;;;;;;;;5097114;28;20279;-71
2023/09/02 18:02:24;;;;;;;;;;;;;;;;;;5096509;28;20307;-71
2023/09/02 18:04:50;;;;;;;;;;;;;;;;;;5096461;28;20349;-73
2023/09/02 18:07:16;;;;;;;;;;;;;;;;;;5078251;28;20249;-71
2023/09/02 18:09:42;;;;;;;;;;;;;;;;;;5096048;28;19915;-72
2023/09/02 18:12:08;;;;;;;;;;;;;;;;;;5096166;28;20006;-72
2023/09/02 18:14:34;;;;;;;;;;;;;;;;;;5097043;28;20368;-73